Time;durP1;ratioP1;P1;durP2;ratioP2;P2;SDS_P1;SDS_P2;PMS_P1;PMS_P2;Temp;Humidity;BMP_temperature;BMP_pressure;BME280_temperature;BME280_humidity;BME280_pressure;Samples;Min_cycle;Max_cycle;Signal;HPM_P1;HPM_P2
2021/05/26 02:45:25;;;;;;;6.35;3.53;;;6.80;95.40;;;;;;5799288;23;20025;-78
2021/05/26 02:47:51;;;;;;;12.23;4.13;;;6.80;95.70;;;;;;4927280;29;20036;-77
2021/05/26 02:50:18;;;;;;;10.38;4.13;;;6.80;95.80;;;;;;4935996;29;20036;-77
2021/05/26 02:52:48;;;;;;;7.95;3.85;;;6.80;95.80;;;;;;4940796;29;20051;-77
2021/05/26 02:55:17;;;;;;;13.68;4.13;;;6.80;95.90;;;;;;4927112;29;20024;-77
2021/05/26 02:58:03;;;;;;;7.90;3.53;;;6.80;95.90;;;;;;4944175;29;20032;-77
2021/05/26 03:01:07;;;;;;;12.98;4.45;;;6.80;96.00;;;;;;4901692;29;20029;-77
2021/05/26 03:03:53;;;;;;;8.63;3.72;;;6.90;96.30;;;;;;4889207;29;20087;-78
2021/05/26 03:06:25;;;;;;;11.25;3.65;;;6.90;96.20;;;;;;4898547;29;20025;-77
2021/05/26 03:08:52;;;;;;;14.45;4.93;;;6.90;96.30;;;;;;4894079;29;20028;-78
2021/05/26 03:11:23;;;;;;;11.25;3.92;;;7.00;96.30;;;;;;4892426;29;20121;-77
2021/05/26 03:13:58;;;;;;;8.82;3.13;;;7.00;96.30;;;;;;4893582;29;20037;-76
2021/05/26 03:16:25;;;;;;;;;;;7.00;96.20;;;;;;4894436;29;20033;-77
2021/05/26 03:18:52;;;;;;;9.48;3.08;;;7.00;96.00;;;;;;4894072;29;19945;-77
2021/05/26 03:21:19;;;;;;;15.38;3.70;;;7.00;95.70;;;;;;4893924;29;20020;-77
2021/05/26 03:24:07;;;;;;;11.30;4.10;;;7.10;95.40;;;;;;4894185;29;20039;-78
2021/05/26 03:26:36;;;;;;;13.63;3.90;;;7.10;95.40;;;;;;4909747;29;20091;-77
2021/05/26 03:29:02;;;;;;;10.93;3.95;;;7.10;95.50;;;;;;4895810;29;20390;-77
2021/05/26 03:31:30;;;;;;;8.60;4.05;;;7.10;95.50;;;;;;4915168;29;20343;-78
2021/05/26 03:33:56;;;;;;;25.42;4.40;;;7.10;95.40;;;;;;4936385;29;20027;-78
2021/05/26 03:36:23;;;;;;;11.32;3.97;;;7.20;95.40;;;;;;4949773;29;20019;-78
2021/05/26 03:38:49;;;;;;;12.25;4.22;;;7.20;95.40;;;;;;4939504;29;20028;-77
2021/05/26 03:41:16;;;;;;;15.73;4.80;;;7.20;95.20;;;;;;4946883;29;20012;-78
2021/05/26 03:43:42;;;;;;;10.52;4.35;;;7.20;95.20;;;;;;4939192;29;20035;-77
2021/05/26 03:46:09;;;;;;;10.87;3.80;;;7.20;95.40;;;;;;4925424;29;20227;-78
2021/05/26 03:48:37;;;;;;;7.90;3.80;;;7.30;95.40;;;;;;4923992;29;20272;-78
2021/05/26 03:51:03;;;;;;;11.52;4.97;;;7.30;95.20;;;;;;4942262;29;20417;-78
2021/05/26 03:53:31;;;;;;;14.30;5.43;;;7.30;95.20;;;;;;4948968;29;20039;-77
2021/05/26 03:55:59;;;;;;;11.20;5.35;;;7.40;95.10;;;;;;4940077;29;20063;-78
2021/05/26 03:58:31;;;;;;;15.65;5.55;;;7.40;95.00;;;;;;4941039;29;20042;-77
2021/05/26 04:01:00;;;;;;;10.32;5.30;;;7.50;95.10;;;;;;4933972;29;20050;-78
2021/05/26 04:03:26;;;;;;;12.18;6.07;;;7.60;95.00;;;;;;4924174;29;20040;-78
2021/05/26 04:05:54;;;;;;;;;;;7.60;94.90;;;;;;4937451;29;20126;-78
2021/05/26 04:08:20;;;;;;;12.15;6.25;;;7.70;95.10;;;;;;4931265;29;19907;-77
2021/05/26 04:10:47;;;;;;;20.02;5.70;;;7.70;95.00;;;;;;4922691;29;20040;-78
2021/05/26 04:13:38;;;;;;;19.50;6.05;;;7.80;95.20;;;;;;4931443;29;20028;-77
2021/05/26 04:16:18;;;;;;;21.85;5.82;;;8.00;95.30;;;;;;4927335;29;20137;-78
2021/05/26 04:18:54;;;;;;;28.05;5.90;;;8.00;95.50;;;;;;4922334;29;20027;-77
2021/05/26 04:21:20;;;;;;;17.38;5.43;;;8.10;95.50;;;;;;4926614;29;20315;-78
2021/05/26 04:23:46;;;;;;;11.10;5.13;;;8.30;95.60;;;;;;4910634;29;20027;-77
2021/05/26 04:26:11;;;;;;;25.30;6.95;;;8.40;95.50;;;;;;4930053;29;20027;-77
2021/05/26 04:28:42;;;;;;;15.57;4.87;;;8.50;95.50;;;;;;4929841;29;20078;-78
2021/05/26 04:31:11;;;;;;;19.75;5.38;;;8.70;95.40;;;;;;4922813;29;20336;-77
2021/05/26 04:33:37;;;;;;;17.15;4.93;;;8.90;95.40;;;;;;4914521;29;20028;-78
2021/05/26 04:36:03;;;;;;;19.80;3.95;;;9.10;95.20;;;;;;4927230;29;20120;-78
2021/05/26 04:38:29;;;;;;;20.20;4.37;;;9.30;95.00;;;;;;4920909;29;20112;-78
2021/05/26 04:40:55;;;;;;;17.10;4.70;;;9.40;94.90;;;;;;4928461;29;20024;-78
2021/05/26 04:43:21;;;;;;;20.55;4.63;;;9.60;94.60;;;;;;4915329;29;20035;-77
2021/05/26 04:45:47;;;;;;;9.57;4.05;;;9.80;94.50;;;;;;4920737;29;20047;-78
2021/05/26 04:48:12;;;;;;;16.88;5.32;;;10.00;94.20;;;;;;4933384;29;20336;-77
2021/05/26 04:50:38;;;;;;;19.00;3.80;;;10.20;93.90;;;;;;4930632;29;20028;-78
2021/05/26 04:53:04;;;;;;;15.25;3.58;;;10.40;93.30;;;;;;4942672;29;20054;-78
2021/05/26 04:55:30;;;;;;;10.93;3.42;;;10.60;92.70;;;;;;4942930;29;20057;-77
2021/05/26 04:58:05;;;;;;;8.75;3.75;;;10.80;92.10;;;;;;4929548;29;20024;-78
2021/05/26 05:00:31;;;;;;;14.30;3.58;;;11.00;91.50;;;;;;4951656;29;20323;-79
2021/05/26 05:02:57;;;;;;;10.15;3.80;;;11.10;91.10;;;;;;4946099;29;20032;-78
2021/05/26 05:05:24;;;;;;;19.17;3.33;;;11.30;90.90;;;;;;4949215;29;20031;-78
2021/05/26 05:07:50;;;;;;;9.73;4.18;;;11.40;90.80;;;;;;4937364;29;20055;-77
2021/05/26 05:10:16;;;;;;;11.50;3.35;;;11.50;89.50;;;;;;4923139;29;20036;-78
2021/05/26 05:12:42;;;;;;;10.20;2.92;;;11.60;88.60;;;;;;4927451;29;20095;-77
2021/05/26 05:15:08;;;;;;;9.50;3.08;;;11.60;88.30;;;;;;4934056;29;20089;-78
2021/05/26 05:17:34;;;;;;;9.97;3.47;;;11.70;87.30;;;;;;4917950;29;20044;-78
2021/05/26 05:20:00;;;;;;;11.13;3.05;;;11.80;87.50;;;;;;4946899;29;20291;-78
2021/05/26 05:22:26;;;;;;;15.38;3.28;;;11.90;87.50;;;;;;4927636;29;20172;-78
2021/05/26 05:24:52;;;;;;;11.13;3.10;;;12.00;87.40;;;;;;4952206;29;20055;-78
2021/05/26 05:27:18;;;;;;;16.52;3.40;;;12.30;86.90;;;;;;4943330;29;20101;-78
2021/05/26 05:29:43;;;;;;;8.80;2.78;;;13.10;86.20;;;;;;4953510;29;20101;-78
2021/05/26 05:32:09;;;;;;;16.63;3.33;;;14.40;82.00;;;;;;4934752;29;20094;-78
2021/05/26 05:34:36;;;;;;;12.25;2.90;;;15.60;76.80;;;;;;4930985;29;20039;-78
2021/05/26 05:37:01;;;;;;;18.35;2.83;;;16.60;72.70;;;;;;4950172;29;20027;-78
2021/05/26 05:39:27;;;;;;;11.73;3.15;;;17.40;66.90;;;;;;4918776;29;20043;-78
2021/05/26 05:41:53;;;;;;;12.35;2.95;;;18.10;67.10;;;;;;4912646;29;20032;-79
2021/05/26 05:44:19;;;;;;;14.60;3.10;;;18.60;62.80;;;;;;4947807;29;20099;-80
2021/05/26 05:46:45;;;;;;;11.05;3.00;;;19.00;60.60;;;;;;4938837;29;20043;-80
2021/05/26 05:49:10;;;;;;;8.18;2.90;;;19.30;59.40;;;;;;4936508;29;20101;-80
2021/05/26 05:51:36;;;;;;;8.57;2.42;;;19.60;58.30;;;;;;4942112;29;20031;-79
2021/05/26 05:54:02;;;;;;;16.52;2.97;;;19.80;58.00;;;;;;4941874;29;20079;-79
2021/05/26 05:56:28;;;;;;;11.48;2.95;;;20.00;55.70;;;;;;4915725;29;20035;-79
2021/05/26 05:58:54;;;;;;;15.02;2.70;;;19.90;56.10;;;;;;4927336;29;20079;-78
2021/05/26 06:01:19;;;;;;;8.85;2.97;;;19.80;54.60;;;;;;4945857;29;20331;-79
2021/05/26 06:03:45;;;;;;;14.85;3.00;;;19.60;55.50;;;;;;4952379;29;20055;-79
2021/05/26 06:06:13;;;;;;;8.32;2.78;;;19.40;54.40;;;;;;4922232;29;20028;-79
2021/05/26 06:08:38;;;;;;;8.90;2.60;;;19.20;54.60;;;;;;4925764;29;20042;-79
2021/05/26 06:11:04;;;;;;;9.60;2.22;;;19.10;56.40;;;;;;4949248;29;20042;-79
2021/05/26 06:13:30;;;;;;;11.70;2.20;;;19.30;56.70;;;;;;4951756;29;20020;-79
2021/05/26 06:15:56;;;;;;;5.43;2.05;;;19.50;56.10;;;;;;4951337;29;20064;-79
2021/05/26 06:18:22;;;;;;;7.95;1.90;;;19.70;55.10;;;;;;4935779;29;20307;-79
2021/05/26 06:20:48;;;;;;;9.40;2.10;;;19.80;53.90;;;;;;4937525;29;20032;-79
2021/05/26 06:23:14;;;;;;;12.27;3.10;;;19.80;54.30;;;;;;4930632;29;20027;-79
2021/05/26 06:25:40;;;;;;;7.65;2.33;;;19.80;54.30;;;;;;4923750;29;20059;-79
2021/05/26 06:28:06;;;;;;;12.05;1.80;;;19.80;55.10;;;;;;4945181;29;20237;-79
2021/05/26 06:30:32;;;;;;;7.70;1.70;;;20.00;54.60;;;;;;4946140;29;20107;-79
2021/05/26 06:32:58;;;;;;;7.72;1.92;;;20.20;54.70;;;;;;4919040;29;20036;-80
2021/05/26 06:35:24;;;;;;;11.25;1.90;;;20.30;52.50;;;;;;4928027;29;20084;-80
2021/05/26 06:37:49;;;;;;;11.43;1.90;;;20.40;52.60;;;;;;4919449;29;20035;-80
2021/05/26 06:40:15;;;;;;;6.63;1.65;;;20.40;52.10;;;;;;4937901;29;20103;-80
2021/05/26 06:42:41;;;;;;;6.55;1.75;;;20.40;51.60;;;;;;4921676;29;20016;-80
2021/05/26 06:45:08;;;;;;;5.45;1.80;;;20.30;53.00;;;;;;4914806;29;20035;-80
2021/05/26 06:47:33;;;;;;;8.73;2.07;;;20.20;51.90;;;;;;4915282;29;20273;-80
2021/05/26 06:50:01;;;;;;;5.57;1.63;;;20.20;51.50;;;;;;4917847;29;20079;-80
2021/05/26 06:52:26;;;;;;;6.72;1.67;;;20.10;51.80;;;;;;4918266;29;20035;-80
2021/05/26 06:54:52;;;;;;;13.05;1.95;;;20.00;52.90;;;;;;4921102;29;20321;-80
2021/05/26 06:57:18;;;;;;;7.53;1.58;;;20.20;52.60;;;;;;4926233;29;20032;-77
2021/05/26 06:59:44;;;;;;;8.38;1.92;;;20.40;51.60;;;;;;4923091;29;20036;-78
2021/05/26 07:02:10;;;;;;;8.95;2.38;;;20.50;53.20;;;;;;4924924;29;20095;-76
2021/05/26 07:04:36;;;;;;;10.23;2.08;;;20.70;52.10;;;;;;4926606;29;20023;-73
2021/05/26 07:07:02;;;;;;;6.68;2.40;;;20.80;51.80;;;;;;4925564;29;20032;-73
2021/05/26 07:09:28;;;;;;;8.18;1.17;;;20.90;50.30;;;;;;4937883;29;20381;-73
2021/05/26 07:11:54;;;;;;;5.65;1.20;;;20.80;52.10;;;;;;4942856;29;20024;-74
2021/05/26 07:14:19;;;;;;;6.72;1.75;;;20.80;52.70;;;;;;4933280;29;20055;-76
2021/05/26 07:16:45;;;;;;;10.57;2.60;;;20.90;52.10;;;;;;4914602;29;20035;-76
2021/05/26 07:19:12;;;;;;;6.28;1.60;;;21.10;51.10;;;;;;4929279;29;20024;-76
2021/05/26 07:21:38;;;;;;;;;;;21.10;49.20;;;;;;4949630;29;20024;-76
2021/05/26 07:24:04;;;;;;;6.37;1.50;;;21.10;50.20;;;;;;4925190;29;20525;-76
2021/05/26 07:26:30;;;;;;;8.33;1.30;;;21.00;49.10;;;;;;4941920;29;20023;-77
2021/05/26 07:28:56;;;;;;;4.85;1.63;;;21.00;48.00;;;;;;4919255;29;20095;-77
2021/05/26 07:31:22;;;;;;;10.98;1.50;;;20.90;48.40;;;;;;4929756;29;20091;-76
2021/05/26 07:33:48;;;;;;;5.72;1.30;;;21.00;48.80;;;;;;4909432;29;20024;-76
2021/05/26 07:36:13;;;;;;;10.50;1.50;;;21.10;49.10;;;;;;4930162;29;20032;-76
2021/05/26 07:38:40;;;;;;;4.53;1.45;;;21.20;47.70;;;;;;4941843;29;20027;-76
2021/05/26 07:41:06;;;;;;;14.17;1.60;;;21.20;47.40;;;;;;4936571;29;20091;-77
2021/05/26 07:43:33;;;;;;;5.18;1.52;;;21.10;47.50;;;;;;4945571;29;20242;-76
2021/05/26 07:46:02;;;;;;;;;;;21.30;49.50;;;;;;4931009;29;20048;-76
2021/05/26 07:48:28;;;;;;;4.05;1.00;;;21.40;45.30;;;;;;4940229;29;19922;-76
2021/05/26 07:50:54;;;;;;;7.13;1.30;;;21.40;44.10;;;;;;4940136;29;20238;-77
2021/05/26 07:53:20;;;;;;;3.63;1.38;;;21.30;46.00;;;;;;4943503;29;20076;-76
2021/05/26 07:55:46;;;;;;;6.35;1.05;;;21.30;46.80;;;;;;4932856;29;20032;-77
2021/05/26 07:58:11;;;;;;;8.98;1.23;;;21.20;45.10;;;;;;4927715;29;20054;-77
2021/05/26 08:00:37;;;;;;;6.10;1.05;;;21.30;46.40;;;;;;4911084;29;20032;-77
2021/05/26 08:03:03;;;;;;;3.83;0.88;;;21.40;46.90;;;;;;4928369;29;20075;-77
2021/05/26 08:05:29;;;;;;;2.50;1.00;;;21.40;44.30;;;;;;4941412;29;20068;-77
2021/05/26 08:07:55;;;;;;;4.65;1.02;;;21.20;44.00;;;;;;4946565;29;20265;-76
2021/05/26 08:10:21;;;;;;;7.47;0.90;;;21.20;44.40;;;;;;4932903;29;20036;-77
2021/05/26 08:12:46;;;;;;;6.25;1.13;;;21.30;44.00;;;;;;4928764;29;20040;-76
2021/05/26 08:15:13;;;;;;;7.07;1.40;;;21.30;43.70;;;;;;4926861;29;20036;-77
2021/05/26 08:17:40;;;;;;;4.18;1.00;;;21.50;46.70;;;;;;4940372;29;20083;-77
2021/05/26 08:20:07;;;;;;;7.90;0.85;;;21.60;45.90;;;;;;4947865;29;20019;-77
2021/05/26 08:22:33;;;;;;;2.45;0.73;;;21.70;43.30;;;;;;4925570;29;20032;-76
2021/05/26 08:24:59;;;;;;;4.17;1.57;;;21.70;43.60;;;;;;4932658;29;20062;-77
2021/05/26 08:27:26;;;;;;;2.88;0.93;;;21.80;44.10;;;;;;4934228;29;20024;-77
2021/05/26 08:29:55;;;;;;;4.80;1.02;;;21.90;41.80;;;;;;4936900;29;20064;-77
2021/05/26 08:32:22;;;;;;;6.53;1.38;;;21.80;40.50;;;;;;4940888;29;20051;-77
2021/05/26 08:34:49;;;;;;;4.95;1.00;;;21.80;42.00;;;;;;4933383;29;20256;-77
2021/05/26 08:37:16;;;;;;;2.33;1.00;;;21.90;42.30;;;;;;4941656;29;20031;-77
2021/05/26 08:39:42;;;;;;;4.15;1.17;;;21.90;41.50;;;;;;4946776;29;20119;-77
2021/05/26 08:42:09;;;;;;;2.20;0.80;;;21.80;41.20;;;;;;4933296;29;20036;-77
2021/05/26 08:44:34;;;;;;;;;;;21.80;40.80;;;;;;4914640;29;20272;-77
2021/05/26 08:47:02;;;;;;;3.17;1.10;;;21.90;42.60;;;;;;4937112;29;19991;-77
2021/05/26 08:49:30;;;;;;;3.50;1.10;;;22.00;42.30;;;;;;4940376;29;20044;-77
2021/05/26 08:52:00;;;;;;;3.40;1.05;;;22.10;42.40;;;;;;4933767;29;20112;-77
2021/05/26 08:54:26;;;;;;;2.95;1.02;;;22.30;42.10;;;;;;4928721;29;20035;-77
2021/05/26 08:56:52;;;;;;;8.98;1.08;;;22.30;41.10;;;;;;4930733;29;20055;-76
2021/05/26 08:59:17;;;;;;;4.38;1.05;;;22.30;40.00;;;;;;4931456;29;20315;-77
2021/05/26 09:01:53;;;;;;;9.30;1.45;;;22.30;40.50;;;;;;4932572;29;20035;-77
2021/05/26 09:04:28;;;;;;;4.50;1.08;;;22.50;42.00;;;;;;4937539;29;20044;-76
2021/05/26 09:07:17;;;;;;;4.43;1.10;;;22.60;41.00;;;;;;4932575;29;20035;-78
2021/05/26 09:09:48;;;;;;;5.63;1.50;;;22.60;38.20;;;;;;4928157;29;20403;-77
2021/05/26 09:12:22;;;;;;;3.95;1.40;;;22.70;38.80;;;;;;4943596;29;20102;-77
2021/05/26 09:14:47;;;;;;;5.47;0.90;;;22.70;42.80;;;;;;4929070;29;20639;-77
2021/05/26 09:17:13;;;;;;;4.72;1.00;;;22.70;44.80;;;;;;4924772;29;20099;-79
2021/05/26 09:19:39;;;;;;;2.90;1.15;;;22.80;40.90;;;;;;4928102;29;20051;-77
2021/05/26 09:22:25;;;;;;;4.57;0.75;;;22.70;40.70;;;;;;4939224;29;20103;-77
2021/05/26 09:24:51;;;;;;;3.30;0.90;;;22.70;37.40;;;;;;4934061;29;20016;-80
2021/05/26 09:27:16;;;;;;;6.65;0.60;;;22.70;38.10;;;;;;4940091;29;20038;-80
2021/05/26 09:29:46;;;;;;;4.88;1.40;;;22.80;36.30;;;;;;4941871;29;20323;-84
2021/05/26 09:32:24;;;;;;;1.05;0.57;;;22.70;35.60;;;;;;4944620;29;20039;-77
2021/05/26 09:34:55;;;;;;;3.88;1.02;;;22.60;35.80;;;;;;4933630;29;20038;-79
2021/05/26 09:37:42;;;;;;;5.53;1.23;;;22.50;36.90;;;;;;4938675;29;20063;-77
2021/05/26 09:40:13;;;;;;;7.00;0.90;;;22.60;37.90;;;;;;4930244;29;20055;-77
2021/05/26 09:42:45;;;;;;;3.50;0.93;;;22.60;35.50;;;;;;4935535;29;20268;-77
2021/05/26 09:45:18;;;;;;;4.93;1.30;;;22.80;38.60;;;;;;4944724;29;20051;-77
2021/05/26 09:47:49;;;;;;;5.70;1.15;;;22.90;38.60;;;;;;4937811;29;20052;-78
2021/05/26 09:50:33;;;;;;;4.60;1.08;;;22.90;37.80;;;;;;4909532;29;20048;-77
2021/05/26 09:53:06;;;;;;;4.10;0.80;;;22.90;36.80;;;;;;4937629;29;20046;-78
2021/05/26 09:55:46;;;;;;;2.30;0.80;;;22.80;36.70;;;;;;4935007;29;20040;-78
2021/05/26 09:58:16;;;;;;;2.72;1.00;;;22.90;34.70;;;;;;4908894;29;20037;-78
2021/05/26 10:00:44;;;;;;;4.18;0.77;;;22.80;35.20;;;;;;4935895;29;20044;-78
2021/05/26 10:03:10;;;;;;;12.23;1.48;;;22.80;35.80;;;;;;4932661;29;20032;-78
2021/05/26 10:05:36;;;;;;;3.90;1.00;;;22.80;35.70;;;;;;4912781;29;20042;-78
2021/05/26 10:08:21;;;;;;;8.38;0.85;;;22.90;36.10;;;;;;4942226;29;20055;-77
2021/05/26 10:11:15;;;;;;;4.43;0.60;;;23.00;35.10;;;;;;4900704;29;20041;-78
2021/05/26 10:13:46;;;;;;;4.38;0.75;;;22.80;34.60;;;;;;4900388;29;20053;-78
2021/05/26 10:16:17;;;;;;;5.28;1.23;;;22.90;35.40;;;;;;4866773;29;20108;-78
2021/05/26 10:18:43;;;;;;;5.80;1.30;;;23.00;35.60;;;;;;4854037;29;20030;-78
2021/05/26 10:21:09;;;;;;;3.63;0.93;;;23.10;36.60;;;;;;4887406;29;20044;-78
2021/05/26 10:23:35;;;;;;;6.95;0.80;;;23.20;37.20;;;;;;4862714;29;20092;-78
2021/05/26 10:26:01;;;;;;;2.33;0.80;;;23.30;35.80;;;;;;4896131;29;20260;-78
2021/05/26 10:28:32;;;;;;;4.22;0.95;;;23.20;34.30;;;;;;4881723;29;20336;-78
2021/05/26 10:30:59;;;;;;;5.22;0.80;;;23.20;35.80;;;;;;4885747;29;20037;-78
2021/05/26 10:33:43;;;;;;;13.52;0.55;;;23.10;34.80;;;;;;4893664;29;20025;-78
2021/05/26 10:36:13;;;;;;;4.68;1.25;;;23.10;34.20;;;;;;4883468;29;20041;-78
2021/05/26 10:38:59;;;;;;;7.85;0.88;;;23.20;35.30;;;;;;4900668;29;20021;-78
2021/05/26 10:41:46;;;;;;;2.72;0.80;;;23.10;33.70;;;;;;4887987;29;20154;-78
2021/05/26 10:44:12;;;;;;;4.35;0.68;;;23.00;35.80;;;;;;4811251;29;20069;-78
2021/05/26 10:46:39;;;;;;;7.65;1.13;;;23.00;35.10;;;;;;4817219;29;20047;-78
2021/05/26 10:49:12;;;;;;;2.72;0.70;;;23.00;35.20;;;;;;4860801;29;20033;-78
2021/05/26 10:51:54;;;;;;;2.13;0.80;;;23.20;34.90;;;;;;4835534;29;20340;-79
2021/05/26 10:54:38;;;;;;;1.73;0.70;;;23.30;33.90;;;;;;4836708;29;20033;-79
2021/05/26 10:57:06;;;;;;;2.30;0.90;;;23.30;33.50;;;;;;4853617;29;20030;-77
2021/05/26 10:59:31;;;;;;;10.43;1.27;;;23.20;34.30;;;;;;4837199;29;20257;-77
2021/05/26 11:02:03;;;;;;;3.28;0.70;;;23.20;34.90;;;;;;4868757;29;20049;-76
2021/05/26 11:04:33;;;;;;;3.20;0.75;;;23.10;34.80;;;;;;4862199;29;20038;-76
2021/05/26 11:07:19;;;;;;;14.60;1.35;;;23.30;34.70;;;;;;4853483;29;20038;-77
2021/05/26 11:10:00;;;;;;;3.67;0.70;;;23.30;34.70;;;;;;4849989;29;20067;-77
2021/05/26 11:12:27;;;;;;;2.75;0.73;;;23.30;34.10;;;;;;4859536;29;20052;-77
2021/05/26 11:14:54;;;;;;;4.65;0.60;;;23.30;34.40;;;;;;4854372;29;20119;-77
2021/05/26 11:17:23;;;;;;;;;;;23.40;34.50;;;;;;4865031;29;20362;-77
2021/05/26 11:19:49;;;;;;;12.45;0.88;;;23.50;34.20;;;;;;4839711;29;19975;-77
2021/05/26 11:22:16;;;;;;;3.35;1.00;;;23.40;34.00;;;;;;4913336;29;20126;-77
2021/05/26 11:24:43;;;;;;;;;;;23.50;35.90;;;;;;4941947;29;20032;-77
2021/05/26 11:27:15;;;;;;;3.72;0.95;;;23.60;34.60;;;;;;4944006;29;19942;-77
2021/05/26 11:29:41;;;;;;;12.57;2.10;;;23.80;34.70;;;;;;4933095;29;20046;-79
2021/05/26 11:32:21;;;;;;;3.88;1.10;;;23.80;33.40;;;;;;4949100;29;20024;-78
2021/05/26 11:34:49;;;;;;;5.90;0.80;;;23.60;33.10;;;;;;4942595;29;20028;-80
2021/05/26 11:37:28;;;;;;;1.88;0.90;;;23.50;33.80;;;;;;4948944;29;20090;-79
2021/05/26 11:39:55;;;;;;;5.70;0.88;;;23.50;34.00;;;;;;4948922;29;20050;-79
2021/05/26 11:42:25;;;;;;;2.25;0.85;;;23.60;35.00;;;;;;4948592;29;20031;-77
2021/05/26 11:45:01;;;;;;;3.13;0.57;;;23.50;34.10;;;;;;4941949;29;20040;-78
2021/05/26 11:47:41;;;;;;;10.45;0.95;;;23.80;33.80;;;;;;4947816;29;20055;-78
2021/05/26 11:50:14;;;;;;;3.92;1.30;;;23.80;34.30;;;;;;4948145;29;20044;-78
2021/05/26 11:52:52;;;;;;;1.73;0.70;;;24.00;35.50;;;;;;4935427;29;20027;-77
2021/05/26 11:55:23;;;;;;;7.80;0.80;;;23.90;34.70;;;;;;4928680;29;20028;-78
2021/05/26 11:57:54;;;;;;;2.63;0.60;;;23.80;33.40;;;;;;4921457;29;20027;-77
2021/05/26 12:00:27;;;;;;;8.80;2.10;;;23.80;34.30;;;;;;4928951;29;20032;-78
2021/05/26 12:03:01;;;;;;;1.25;0.70;;;23.90;34.60;;;;;;4928797;29;20023;-77
2021/05/26 12:05:38;;;;;;;6.75;0.60;;;24.00;33.80;;;;;;4948324;29;20087;-78
2021/05/26 12:08:15;;;;;;;5.85;0.95;;;24.00;33.30;;;;;;4931619;29;20027;-79
2021/05/26 12:10:41;;;;;;;4.78;0.73;;;24.00;34.90;;;;;;4914034;29;20320;-79
2021/05/26 12:13:07;;;;;;;2.28;0.70;;;24.10;32.80;;;;;;4919427;29;20063;-78
2021/05/26 12:15:33;;;;;;;3.28;1.00;;;24.00;32.10;;;;;;4931374;29;20027;-79
2021/05/26 12:18:00;;;;;;;5.90;0.90;;;23.80;33.60;;;;;;4930325;29;20043;-77
2021/05/26 12:20:26;;;;;;;2.65;0.90;;;23.90;34.00;;;;;;4924629;29;20029;-78
2021/05/26 12:22:53;;;;;;;3.00;0.85;;;23.90;33.40;;;;;;4918955;29;20035;-78
2021/05/26 12:25:19;;;;;;;;;;;23.80;33.30;;;;;;4932204;29;20028;-79
2021/05/26 12:27:47;;;;;;;4.57;0.80;;;23.70;32.70;;;;;;4930879;29;20201;-80
2021/05/26 12:30:13;;;;;;;5.47;0.85;;;23.80;33.60;;;;;;4913424;29;20515;-79
2021/05/26 12:32:39;;;;;;;3.53;0.77;;;23.80;33.60;;;;;;4918420;29;20078;-79
2021/05/26 12:35:26;;;;;;;2.23;0.73;;;23.80;33.00;;;;;;4942421;29;20020;-78
2021/05/26 12:37:55;;;;;;;1.90;1.02;;;23.80;33.30;;;;;;4931062;29;20054;-77
2021/05/26 12:40:26;;;;;;;6.75;1.02;;;23.80;33.60;;;;;;4935054;29;20027;-77
2021/05/26 12:42:54;;;;;;;1.90;0.82;;;23.80;33.70;;;;;;4939731;29;20035;-77
2021/05/26 12:45:30;;;;;;;12.63;0.70;;;23.90;34.30;;;;;;4928436;29;20087;-77
2021/05/26 12:47:59;;;;;;;5.78;0.98;;;24.00;33.60;;;;;;4936575;29;20035;-77
2021/05/26 12:50:32;;;;;;;1.52;0.50;;;24.10;34.60;;;;;;4934886;29;20087;-78
2021/05/26 12:53:09;;;;;;;5.45;0.90;;;24.30;32.80;;;;;;4947775;29;20028;-80
2021/05/26 12:55:35;;;;;;;2.17;0.88;;;24.20;33.10;;;;;;4921818;29;20023;-80
2021/05/26 12:58:03;;;;;;;4.57;0.93;;;24.20;33.10;;;;;;4912351;29;20027;-80
2021/05/26 13:00:29;;;;;;;8.13;0.93;;;24.30;33.40;;;;;;4920991;29;20095;-78
2021/05/26 13:03:05;;;;;;;2.42;0.90;;;24.20;32.60;;;;;;4917622;29;20043;-78
2021/05/26 13:05:34;;;;;;;5.93;0.82;;;24.20;33.50;;;;;;4905634;29;20035;-78
2021/05/26 13:08:26;;;;;;;5.72;0.90;;;24.40;33.10;;;;;;4925912;29;20087;-80
2021/05/26 13:10:54;;;;;;;2.17;0.95;;;24.20;33.50;;;;;;4871300;29;20059;-79
2021/05/26 13:13:34;;;;;;;3.25;0.80;;;24.30;33.60;;;;;;4883315;29;20041;-78
2021/05/26 13:16:11;;;;;;;4.85;0.80;;;24.30;34.20;;;;;;4871773;29;20338;-78
2021/05/26 13:18:37;;;;;;;6.00;0.98;;;24.40;34.90;;;;;;4858427;29;20052;-78
2021/05/26 13:21:04;;;;;;;6.47;0.85;;;24.40;33.70;;;;;;4874210;29;20045;-81
2021/05/26 13:23:30;;;;;;;6.95;0.80;;;24.30;34.00;;;;;;4876160;29;20032;-79
2021/05/26 13:25:56;;;;;;;3.20;1.02;;;24.20;33.90;;;;;;4863331;29;20101;-78
2021/05/26 13:28:24;;;;;;;5.85;1.15;;;24.30;34.60;;;;;;4881260;29;20037;-78
2021/05/26 13:30:52;;;;;;;3.65;0.73;;;24.40;35.30;;;;;;4869477;29;20061;-79
2021/05/26 13:33:18;;;;;;;2.33;0.65;;;24.60;34.80;;;;;;4876139;29;20041;-80
2021/05/26 13:35:45;;;;;;;4.38;1.75;;;24.60;34.20;;;;;;4892056;29;20045;-80
2021/05/26 13:38:12;;;;;;;;;;;24.50;34.10;;;;;;4886180;29;20037;-80
2021/05/26 13:40:41;;;;;;;5.28;1.38;;;24.40;34.60;;;;;;4874548;29;19996;-79
2021/05/26 13:43:08;;;;;;;7.22;1.50;;;24.30;34.70;;;;;;4889863;29;20044;-79
2021/05/26 13:45:34;;;;;;;6.82;0.73;;;24.30;34.90;;;;;;4879062;29;20028;-78
2021/05/26 13:48:05;;;;;;;5.13;1.00;;;24.40;34.30;;;;;;4919931;29;20091;-79
2021/05/26 13:50:31;;;;;;;1.95;0.70;;;24.60;34.70;;;;;;4912419;29;20036;-80
2021/05/26 13:52:58;;;;;;;6.78;1.20;;;24.70;34.20;;;;;;4940678;29;20048;-78
2021/05/26 13:55:26;;;;;;;10.00;2.00;;;24.60;34.00;;;;;;4940447;29;20028;-79
2021/05/26 13:57:57;;;;;;;6.70;1.02;;;24.50;34.00;;;;;;4921809;29;20033;-80
2021/05/26 14:00:25;;;;;;;2.03;1.00;;;24.50;33.40;;;;;;4930752;29;20031;-79
2021/05/26 14:02:51;;;;;;;8.35;1.60;;;24.50;33.70;;;;;;4934701;29;20028;-78
2021/05/26 14:05:19;;;;;;;1.85;0.63;;;24.50;34.20;;;;;;4912048;29;20103;-77
2021/05/26 14:07:46;;;;;;;7.10;0.98;;;24.50;34.30;;;;;;4927256;29;20043;-78
2021/05/26 14:10:16;;;;;;;2.65;0.88;;;24.50;33.00;;;;;;4917590;29;20024;-78
2021/05/26 14:12:43;;;;;;;4.50;1.60;;;24.40;34.00;;;;;;4920651;29;20345;-79
2021/05/26 14:15:10;;;;;;;8.23;1.10;;;24.40;33.30;;;;;;4946236;29;20054;-78
2021/05/26 14:17:36;;;;;;;11.13;1.88;;;24.40;33.10;;;;;;4923407;29;20071;-78
2021/05/26 14:20:04;;;;;;;4.80;1.15;;;24.50;32.70;;;;;;4921408;29;20052;-79
2021/05/26 14:22:31;;;;;;;4.28;0.98;;;24.40;32.20;;;;;;4939650;29;20078;-79
2021/05/26 14:24:57;;;;;;;1.42;0.80;;;24.40;33.70;;;;;;4932464;29;20055;-79
2021/05/26 14:27:23;;;;;;;7.07;1.00;;;24.50;32.30;;;;;;4949569;29;20074;-78
2021/05/26 14:29:49;;;;;;;8.43;1.95;;;24.70;33.70;;;;;;4944834;29;20044;-78
2021/05/26 14:32:15;;;;;;;2.63;0.90;;;24.70;33.00;;;;;;4943549;29;20023;-78
2021/05/26 14:34:43;;;;;;;3.53;0.90;;;24.60;32.70;;;;;;4941481;29;20318;-78
2021/05/26 14:37:11;;;;;;;3.78;0.77;;;24.40;34.00;;;;;;4938736;29;20283;-78
2021/05/26 14:39:47;;;;;;;4.72;1.08;;;24.50;33.00;;;;;;4930510;29;20319;-78
2021/05/26 14:42:13;;;;;;;3.03;1.33;;;24.80;33.50;;;;;;4942280;29;20333;-79
2021/05/26 14:44:38;;;;;;;5.07;0.93;;;25.00;32.80;;;;;;4939256;29;20115;-78
2021/05/26 14:47:04;;;;;;;1.52;0.80;;;25.20;33.20;;;;;;4924001;29;20056;-78
2021/05/26 14:49:30;;;;;;;16.60;1.30;;;25.20;32.40;;;;;;4932929;29;20058;-77
2021/05/26 14:51:56;;;;;;;2.97;1.05;;;25.30;32.60;;;;;;4933613;29;20211;-79
2021/05/26 14:54:24;;;;;;;3.15;0.60;;;25.40;33.00;;;;;;4930937;29;20087;-78
2021/05/26 14:56:50;;;;;;;5.53;0.65;;;25.50;32.20;;;;;;4904927;29;20043;-79
2021/05/26 14:59:16;;;;;;;3.67;1.23;;;25.50;33.10;;;;;;4913242;29;20028;-78
2021/05/26 15:01:42;;;;;;;8.18;0.80;;;25.40;32.40;;;;;;4921295;29;20020;-79
2021/05/26 15:04:08;;;;;;;1.38;0.63;;;25.30;33.20;;;;;;4931718;29;20054;-79
2021/05/26 15:06:34;;;;;;;1.33;0.60;;;25.30;33.10;;;;;;4921599;29;20035;-79
2021/05/26 15:09:01;;;;;;;10.50;1.20;;;25.40;33.30;;;;;;4933942;29;20059;-79
2021/05/26 15:11:27;;;;;;;2.80;0.77;;;25.00;32.90;;;;;;4921764;29;20203;-78
2021/05/26 15:13:53;;;;;;;2.47;0.90;;;24.90;34.70;;;;;;4923242;29;20025;-78
2021/05/26 15:16:19;;;;;;;3.95;0.88;;;25.00;33.50;;;;;;4931792;29;20048;-79
2021/05/26 15:18:45;;;;;;;5.68;0.75;;;25.10;33.60;;;;;;4923425;29;20024;-78
2021/05/26 15:21:12;;;;;;;4.83;0.70;;;25.00;35.00;;;;;;4933240;29;20070;-78
2021/05/26 15:23:38;;;;;;;8.10;1.38;;;25.10;34.50;;;;;;4926858;29;20615;-79
2021/05/26 15:26:04;;;;;;;5.40;0.90;;;25.10;34.40;;;;;;4929877;29;20028;-78
2021/05/26 15:28:30;;;;;;;6.57;1.10;;;25.20;34.40;;;;;;4935434;29;20028;-78
2021/05/26 15:30:56;;;;;;;6.93;0.90;;;25.10;34.60;;;;;;4911483;29;20290;-78
2021/05/26 15:33:22;;;;;;;2.47;1.00;;;25.10;35.20;;;;;;4942464;29;20103;-78
2021/05/26 15:35:49;;;;;;;0.55;0.40;;;25.10;34.30;;;;;;4913874;29;20024;-78
2021/05/26 15:38:14;;;;;;;6.50;1.70;;;24.80;35.00;;;;;;4937994;29;20094;-79
2021/05/26 15:40:41;;;;;;;3.05;0.77;;;24.90;35.00;;;;;;4920988;29;20024;-78